sensor_id;sensor_type;location;lat;lon;timestamp;P1;durP1;ratioP1;P2;durP2;ratioP2
34767;SDS011;21755;43.608;1.236;2022-09-13T00:01:17;11.07;;;5.38;;
34767;SDS011;21755;43.608;1.236;2022-09-13T00:03:43;14.68;;;5.70;;
34767;SDS011;21755;43.608;1.236;2022-09-13T00:08:37;12.07;;;6.70;;
34767;SDS011;21755;43.608;1.236;2022-09-13T00:11:03;9.70;;;5.72;;
34767;SDS011;21755;43.608;1.236;2022-09-13T00:13:29;9.00;;;6.03;;
34767;SDS011;21755;43.608;1.236;2022-09-13T00:15:55;16.00;;;6.10;;
34767;SDS011;21755;43.608;1.236;2022-09-13T00:18:22;13.35;;;5.93;;
34767;SDS011;21755;43.608;1.236;2022-09-13T00:20:49;10.80;;;5.72;;
34767;SDS011;21755;43.608;1.236;2022-09-13T00:23:15;13.25;;;6.40;;
34767;SDS011;21755;43.608;1.236;2022-09-13T00:25:40;12.10;;;5.97;;
34767;SDS011;21755;43.608;1.236;2022-09-13T00:28:06;12.65;;;6.15;;
34767;SDS011;21755;43.608;1.236;2022-09-13T00:30:33;10.13;;;5.95;;
34767;SDS011;21755;43.608;1.236;2022-09-13T00:32:59;14.75;;;6.05;;
34767;SDS011;21755;43.608;1.236;2022-09-13T00:35:28;12.00;;;5.78;;
34767;SDS011;21755;43.608;1.236;2022-09-13T00:37:57;15.15;;;6.15;;
34767;SDS011;21755;43.608;1.236;2022-09-13T00:40:24;11.27;;;5.13;;
34767;SDS011;21755;43.608;1.236;2022-09-13T00:42:49;8.02;;;5.85;;
34767;SDS011;21755;43.608;1.236;2022-09-13T00:45:16;9.68;;;5.90;;
34767;SDS011;21755;43.608;1.236;2022-09-13T00:52:46;10.68;;;6.25;;
34767;SDS011;21755;43.608;1.236;2022-09-13T00:55:36;14.63;;;5.55;;
34767;SDS011;21755;43.608;1.236;2022-09-13T00:58:15;6.78;;;5.47;;
34767;SDS011;21755;43.608;1.236;2022-09-13T01:00:48;8.05;;;5.30;;
34767;SDS011;21755;43.608;1.236;2022-09-13T01:03:15;9.90;;;5.72;;
34767;SDS011;21755;43.608;1.236;2022-09-13T01:05:51;7.90;;;5.20;;
34767;SDS011;21755;43.608;1.236;2022-09-13T01:08:30;9.80;;;5.97;;
34767;SDS011;21755;43.608;1.236;2022-09-13T01:10:58;11.90;;;5.65;;
34767;SDS011;21755;43.608;1.236;2022-09-13T01:13:27;7.43;;;5.30;;
34767;SDS011;21755;43.608;1.236;2022-09-13T01:15:56;9.30;;;5.88;;
34767;SDS011;21755;43.608;1.236;2022-09-13T01:18:22;11.88;;;5.22;;
34767;SDS011;21755;43.608;1.236;2022-09-13T01:32:01;13.23;;;4.82;;
34767;SDS011;21755;43.608;1.236;2022-09-13T01:34:41;7.10;;;5.07;;
34767;SDS011;21755;43.608;1.236;2022-09-13T01:37:49;9.02;;;4.75;;
34767;SDS011;21755;43.608;1.236;2022-09-13T01:51:20;16.35;;;5.60;;
34767;SDS011;21755;43.608;1.236;2022-09-13T01:54:11;7.00;;;4.70;;
34767;SDS011;21755;43.608;1.236;2022-09-13T01:59:33;8.68;;;4.93;;
34767;SDS011;21755;43.608;1.236;2022-09-13T02:02:20;7.68;;;4.40;;
34767;SDS011;21755;43.608;1.236;2022-09-13T02:05:06;7.15;;;5.00;;
34767;SDS011;21755;43.608;1.236;2022-09-13T02:07:45;8.07;;;4.53;;
34767;SDS011;21755;43.608;1.236;2022-09-13T02:10:20;7.10;;;4.90;;
34767;SDS011;21755;43.608;1.236;2022-09-13T02:12:51;5.68;;;4.65;;
34767;SDS011;21755;43.608;1.236;2022-09-13T02:15:24;7.72;;;4.20;;
34767;SDS011;21755;43.608;1.236;2022-09-13T02:18:01;10.85;;;4.93;;
34767;SDS011;21755;43.608;1.236;2022-09-13T02:20:49;5.13;;;4.28;;
34767;SDS011;21755;43.608;1.236;2022-09-13T02:23:19;8.45;;;3.83;;
34767;SDS011;21755;43.608;1.236;2022-09-13T02:25:50;10.10;;;4.90;;
34767;SDS011;21755;43.608;1.236;2022-09-13T02:28:27;7.82;;;4.53;;
34767;SDS011;21755;43.608;1.236;2022-09-13T02:30:58;7.20;;;4.10;;
34767;SDS011;21755;43.608;1.236;2022-09-13T02:33:36;5.95;;;4.28;;
34767;SDS011;21755;43.608;1.236;2022-09-13T02:36:09;8.25;;;4.03;;
34767;SDS011;21755;43.608;1.236;2022-09-13T02:43:45;10.95;;;4.55;;
34767;SDS011;21755;43.608;1.236;2022-09-13T02:48:57;10.95;;;4.50;;
34767;SDS011;21755;43.608;1.236;2022-09-13T02:51:32;6.95;;;4.93;;
34767;SDS011;21755;43.608;1.236;2022-09-13T02:54:24;10.02;;;5.00;;
34767;SDS011;21755;43.608;1.236;2022-09-13T02:57:00;9.73;;;4.57;;
34767;SDS011;21755;43.608;1.236;2022-09-13T02:59:32;13.27;;;4.93;;
34767;SDS011;21755;43.608;1.236;2022-09-13T03:02:00;4.72;;;4.22;;
34767;SDS011;21755;43.608;1.236;2022-09-13T03:04:32;6.13;;;4.25;;
34767;SDS011;21755;43.608;1.236;2022-09-13T03:06:59;8.32;;;4.78;;
34767;SDS011;21755;43.608;1.236;2022-09-13T03:09:28;7.55;;;4.30;;
34767;SDS011;21755;43.608;1.236;2022-09-13T03:12:08;8.60;;;4.60;;
34767;SDS011;21755;43.608;1.236;2022-09-13T03:29:23;8.18;;;4.50;;
34767;SDS011;21755;43.608;1.236;2022-09-13T03:40:00;8.82;;;4.63;;
34767;SDS011;21755;43.608;1.236;2022-09-13T03:42:36;7.15;;;5.15;;
34767;SDS011;21755;43.608;1.236;2022-09-13T03:45:09;11.20;;;5.15;;
34767;SDS011;21755;43.608;1.236;2022-09-13T03:47:37;9.77;;;5.93;;
34767;SDS011;21755;43.608;1.236;2022-09-13T03:50:06;7.65;;;5.25;;
34767;SDS011;21755;43.608;1.236;2022-09-13T03:52:34;9.85;;;4.97;;
34767;SDS011;21755;43.608;1.236;2022-09-13T03:55:01;6.28;;;4.63;;
34767;SDS011;21755;43.608;1.236;2022-09-13T03:57:27;9.75;;;5.32;;
34767;SDS011;21755;43.608;1.236;2022-09-13T03:59:54;6.38;;;4.85;;
34767;SDS011;21755;43.608;1.236;2022-09-13T04:02:22;12.63;;;5.15;;
34767;SDS011;21755;43.608;1.236;2022-09-13T04:04:49;10.43;;;4.88;;
34767;SDS011;21755;43.608;1.236;2022-09-13T04:07:16;10.25;;;4.93;;
34767;SDS011;21755;43.608;1.236;2022-09-13T04:09:45;8.50;;;4.95;;
34767;SDS011;21755;43.608;1.236;2022-09-13T04:12:11;9.52;;;5.30;;
34767;SDS011;21755;43.608;1.236;2022-09-13T04:14:39;14.40;;;5.07;;
34767;SDS011;21755;43.608;1.236;2022-09-13T04:17:06;8.93;;;4.70;;
34767;SDS011;21755;43.608;1.236;2022-09-13T04:19:33;8.20;;;5.10;;
34767;SDS011;21755;43.608;1.236;2022-09-13T04:21:58;10.00;;;5.03;;
34767;SDS011;21755;43.608;1.236;2022-09-13T04:24:25;10.48;;;5.00;;
34767;SDS011;21755;43.608;1.236;2022-09-13T04:26:52;12.98;;;5.32;;
34767;SDS011;21755;43.608;1.236;2022-09-13T04:29:19;11.30;;;5.05;;
34767;SDS011;21755;43.608;1.236;2022-09-13T04:31:47;11.13;;;5.30;;
34767;SDS011;21755;43.608;1.236;2022-09-13T04:34:14;11.38;;;5.38;;
34767;SDS011;21755;43.608;1.236;2022-09-13T04:36:42;8.95;;;4.82;;
34767;SDS011;21755;43.608;1.236;2022-09-13T04:39:09;10.43;;;4.22;;
34767;SDS011;21755;43.608;1.236;2022-09-13T04:41:38;11.02;;;5.15;;
34767;SDS011;21755;43.608;1.236;2022-09-13T04:44:05;5.97;;;4.22;;
34767;SDS011;21755;43.608;1.236;2022-09-13T04:46:31;7.40;;;4.47;;
34767;SDS011;21755;43.608;1.236;2022-09-13T04:48:57;4.70;;;4.30;;
34767;SDS011;21755;43.608;1.236;2022-09-13T04:51:23;10.27;;;4.65;;
34767;SDS011;21755;43.608;1.236;2022-09-13T04:53:52;8.93;;;4.82;;
34767;SDS011;21755;43.608;1.236;2022-09-13T04:56:19;7.65;;;4.55;;
34767;SDS011;21755;43.608;1.236;2022-09-13T04:58:47;7.68;;;4.57;;
34767;SDS011;21755;43.608;1.236;2022-09-13T05:01:16;7.47;;;4.57;;
34767;SDS011;21755;43.608;1.236;2022-09-13T05:03:44;10.50;;;4.57;;
34767;SDS011;21755;43.608;1.236;2022-09-13T05:06:14;9.07;;;4.25;;
34767;SDS011;21755;43.608;1.236;2022-09-13T05:08:42;7.90;;;4.63;;
34767;SDS011;21755;43.608;1.236;2022-09-13T05:11:09;10.38;;;4.55;;
34767;SDS011;21755;43.608;1.236;2022-09-13T05:13:35;15.02;;;5.05;;
34767;SDS011;21755;43.608;1.236;2022-09-13T05:16:04;11.13;;;4.60;;
34767;SDS011;21755;43.608;1.236;2022-09-13T05:18:32;8.23;;;4.45;;
34767;SDS011;21755;43.608;1.236;2022-09-13T05:21:01;6.70;;;3.83;;
34767;SDS011;21755;43.608;1.236;2022-09-13T05:23:29;9.98;;;4.13;;
34767;SDS011;21755;43.608;1.236;2022-09-13T05:25:57;10.70;;;4.55;;
34767;SDS011;21755;43.608;1.236;2022-09-13T05:28:29;8.30;;;4.07;;
34767;SDS011;21755;43.608;1.236;2022-09-13T05:30:56;9.48;;;4.13;;
34767;SDS011;21755;43.608;1.236;2022-09-13T05:33:25;6.93;;;3.78;;
34767;SDS011;21755;43.608;1.236;2022-09-13T05:35:52;11.65;;;4.18;;
34767;SDS011;21755;43.608;1.236;2022-09-13T05:38:18;8.60;;;4.00;;
34767;SDS011;21755;43.608;1.236;2022-09-13T05:40:45;8.70;;;3.72;;
34767;SDS011;21755;43.608;1.236;2022-09-13T05:43:11;7.63;;;3.92;;
34767;SDS011;21755;43.608;1.236;2022-09-13T05:45:38;4.20;;;3.75;;
34767;SDS011;21755;43.608;1.236;2022-09-13T05:48:04;8.55;;;3.58;;
34767;SDS011;21755;43.608;1.236;2022-09-13T05:50:30;10.32;;;3.55;;
34767;SDS011;21755;43.608;1.236;2022-09-13T05:52:56;7.93;;;4.25;;
34767;SDS011;21755;43.608;1.236;2022-09-13T05:55:22;6.63;;;3.35;;
34767;SDS011;21755;43.608;1.236;2022-09-13T05:57:48;9.88;;;3.70;;
34767;SDS011;21755;43.608;1.236;2022-09-13T06:00:14;9.73;;;3.83;;
34767;SDS011;21755;43.608;1.236;2022-09-13T06:02:41;9.15;;;3.20;;
34767;SDS011;21755;43.608;1.236;2022-09-13T06:05:07;8.30;;;3.85;;
34767;SDS011;21755;43.608;1.236;2022-09-13T06:07:40;7.10;;;3.55;;
34767;SDS011;21755;43.608;1.236;2022-09-13T06:10:07;9.07;;;3.78;;
34767;SDS011;21755;43.608;1.236;2022-09-13T06:12:33;9.52;;;3.28;;
34767;SDS011;21755;43.608;1.236;2022-09-13T06:14:59;12.35;;;3.83;;
34767;SDS011;21755;43.608;1.236;2022-09-13T06:17:25;4.97;;;3.42;;
34767;SDS011;21755;43.608;1.236;2022-09-13T06:19:51;8.65;;;3.60;;
34767;SDS011;21755;43.608;1.236;2022-09-13T06:22:17;12.82;;;3.63;;
34767;SDS011;21755;43.608;1.236;2022-09-13T06:24:43;10.20;;;3.58;;
34767;SDS011;21755;43.608;1.236;2022-09-13T06:27:08;12.82;;;3.60;;
34767;SDS011;21755;43.608;1.236;2022-09-13T06:29:35;6.38;;;3.50;;
34767;SDS011;21755;43.608;1.236;2022-09-13T06:32:02;10.65;;;3.72;;
34767;SDS011;21755;43.608;1.236;2022-09-13T06:34:28;8.75;;;3.55;;
34767;SDS011;21755;43.608;1.236;2022-09-13T06:36:54;10.27;;;4.03;;
34767;SDS011;21755;43.608;1.236;2022-09-13T06:39:20;10.80;;;3.70;;
34767;SDS011;21755;43.608;1.236;2022-09-13T06:41:46;9.27;;;3.25;;
34767;SDS011;21755;43.608;1.236;2022-09-13T06:44:12;7.05;;;3.60;;
34767;SDS011;21755;43.608;1.236;2022-09-13T06:46:38;8.52;;;3.08;;
34767;SDS011;21755;43.608;1.236;2022-09-13T06:49:05;6.55;;;2.95;;
34767;SDS011;21755;43.608;1.236;2022-09-13T06:51:32;9.50;;;3.20;;
34767;SDS011;21755;43.608;1.236;2022-09-13T06:54:00;10.13;;;3.35;;
34767;SDS011;21755;43.608;1.236;2022-09-13T06:56:31;7.95;;;3.17;;
34767;SDS011;21755;43.608;1.236;2022-09-13T06:59:00;11.45;;;3.78;;
34767;SDS011;21755;43.608;1.236;2022-09-13T07:01:30;7.55;;;3.63;;
34767;SDS011;21755;43.608;1.236;2022-09-13T07:04:04;8.80;;;3.30;;
34767;SDS011;21755;43.608;1.236;2022-09-13T07:06:35;6.20;;;2.88;;
34767;SDS011;21755;43.608;1.236;2022-09-13T07:09:03;7.30;;;3.13;;
34767;SDS011;21755;43.608;1.236;2022-09-13T07:11:32;7.88;;;3.05;;
34767;SDS011;21755;43.608;1.236;2022-09-13T07:14:00;7.53;;;3.00;;
34767;SDS011;21755;43.608;1.236;2022-09-13T07:16:27;13.98;;;3.25;;
34767;SDS011;21755;43.608;1.236;2022-09-13T07:18:57;16.02;;;3.40;;
34767;SDS011;21755;43.608;1.236;2022-09-13T07:21:25;8.38;;;2.95;;
34767;SDS011;21755;43.608;1.236;2022-09-13T07:23:53;6.50;;;3.03;;
34767;SDS011;21755;43.608;1.236;2022-09-13T07:26:19;10.63;;;3.10;;
34767;SDS011;21755;43.608;1.236;2022-09-13T07:28:47;8.85;;;2.92;;
34767;SDS011;21755;43.608;1.236;2022-09-13T07:31:17;6.43;;;2.83;;
34767;SDS011;21755;43.608;1.236;2022-09-13T07:33:51;10.23;;;3.05;;
34767;SDS011;21755;43.608;1.236;2022-09-13T07:36:19;9.32;;;3.08;;
34767;SDS011;21755;43.608;1.236;2022-09-13T07:38:45;12.18;;;3.05;;
34767;SDS011;21755;43.608;1.236;2022-09-13T07:41:16;10.95;;;3.03;;
34767;SDS011;21755;43.608;1.236;2022-09-13T07:43:43;9.30;;;3.22;;
34767;SDS011;21755;43.608;1.236;2022-09-13T07:46:10;20.77;;;3.10;;
34767;SDS011;21755;43.608;1.236;2022-09-13T07:48:38;9.65;;;3.15;;
34767;SDS011;21755;43.608;1.236;2022-09-13T07:51:07;9.77;;;2.92;;
34767;SDS011;21755;43.608;1.236;2022-09-13T07:53:35;13.32;;;3.20;;
34767;SDS011;21755;43.608;1.236;2022-09-13T07:56:02;6.55;;;2.90;;
34767;SDS011;21755;43.608;1.236;2022-09-13T07:58:30;7.85;;;2.80;;
34767;SDS011;21755;43.608;1.236;2022-09-13T08:00:59;10.85;;;3.05;;
34767;SDS011;21755;43.608;1.236;2022-09-13T08:03:33;13.88;;;2.97;;
34767;SDS011;21755;43.608;1.236;2022-09-13T08:06:00;7.00;;;2.60;;
34767;SDS011;21755;43.608;1.236;2022-09-13T08:08:27;12.02;;;3.03;;
34767;SDS011;21755;43.608;1.236;2022-09-13T08:10:53;10.82;;;2.75;;
34767;SDS011;21755;43.608;1.236;2022-09-13T08:13:19;9.27;;;3.30;;
34767;SDS011;21755;43.608;1.236;2022-09-13T08:15:46;4.35;;;2.58;;
34767;SDS011;21755;43.608;1.236;2022-09-13T08:18:12;10.90;;;3.00;;
34767;SDS011;21755;43.608;1.236;2022-09-13T08:20:38;10.82;;;3.03;;
34767;SDS011;21755;43.608;1.236;2022-09-13T08:23:04;9.98;;;3.40;;
34767;SDS011;21755;43.608;1.236;2022-09-13T08:25:34;7.82;;;2.45;;
34767;SDS011;21755;43.608;1.236;2022-09-13T08:28:04;7.93;;;2.70;;
34767;SDS011;21755;43.608;1.236;2022-09-13T08:30:32;9.95;;;2.80;;
34767;SDS011;21755;43.608;1.236;2022-09-13T08:33:01;9.25;;;2.55;;
34767;SDS011;21755;43.608;1.236;2022-09-13T08:35:28;7.93;;;2.55;;
34767;SDS011;21755;43.608;1.236;2022-09-13T08:37:54;12.80;;;2.72;;
34767;SDS011;21755;43.608;1.236;2022-09-13T08:40:21;12.30;;;2.50;;
34767;SDS011;21755;43.608;1.236;2022-09-13T08:45:23;11.85;;;2.97;;
34767;SDS011;21755;43.608;1.236;2022-09-13T08:50:27;9.50;;;2.58;;
34767;SDS011;21755;43.608;1.236;2022-09-13T08:53:11;11.07;;;3.20;;
34767;SDS011;21755;43.608;1.236;2022-09-13T09:03:58;9.93;;;3.20;;
34767;SDS011;21755;43.608;1.236;2022-09-13T09:06:45;11.95;;;2.65;;
34767;SDS011;21755;43.608;1.236;2022-09-13T09:09:20;7.60;;;2.55;;
34767;SDS011;21755;43.608;1.236;2022-09-13T09:11:53;11.25;;;2.80;;
34767;SDS011;21755;43.608;1.236;2022-09-13T09:14:56;11.15;;;2.88;;
34767;SDS011;21755;43.608;1.236;2022-09-13T09:22:45;9.70;;;2.67;;
34767;SDS011;21755;43.608;1.236;2022-09-13T09:25:12;8.48;;;2.67;;
34767;SDS011;21755;43.608;1.236;2022-09-13T09:27:38;10.98;;;3.17;;
34767;SDS011;21755;43.608;1.236;2022-09-13T09:30:04;10.57;;;3.15;;
34767;SDS011;21755;43.608;1.236;2022-09-13T09:36:14;11.65;;;3.42;;
34767;SDS011;21755;43.608;1.236;2022-09-13T09:39:03;14.60;;;2.90;;
34767;SDS011;21755;43.608;1.236;2022-09-13T09:41:33;10.27;;;3.20;;
34767;SDS011;21755;43.608;1.236;2022-09-13T09:44:17;18.90;;;3.35;;
34767;SDS011;21755;43.608;1.236;2022-09-13T09:46:46;8.95;;;2.97;;
34767;SDS011;21755;43.608;1.236;2022-09-13T09:55:36;8.18;;;2.83;;
34767;SDS011;21755;43.608;1.236;2022-09-13T09:58:11;8.50;;;2.60;;
34767;SDS011;21755;43.608;1.236;2022-09-13T10:00:57;6.60;;;2.65;;
34767;SDS011;21755;43.608;1.236;2022-09-13T10:03:24;7.30;;;2.42;;
34767;SDS011;21755;43.608;1.236;2022-09-13T10:06:05;6.63;;;2.80;;
34767;SDS011;21755;43.608;1.236;2022-09-13T10:08:39;12.57;;;2.45;;
34767;SDS011;21755;43.608;1.236;2022-09-13T10:11:07;9.98;;;2.70;;
34767;SDS011;21755;43.608;1.236;2022-09-13T10:13:34;7.43;;;2.85;;
34767;SDS011;21755;43.608;1.236;2022-09-13T10:16:03;15.57;;;2.95;;
34767;SDS011;21755;43.608;1.236;2022-09-13T10:18:35;8.55;;;2.97;;
34767;SDS011;21755;43.608;1.236;2022-09-13T10:21:19;8.70;;;2.47;;
34767;SDS011;21755;43.608;1.236;2022-09-13T10:23:48;7.30;;;2.53;;
34767;SDS011;21755;43.608;1.236;2022-09-13T10:26:24;11.85;;;2.70;;
34767;SDS011;21755;43.608;1.236;2022-09-13T10:31:33;9.75;;;2.53;;
34767;SDS011;21755;43.608;1.236;2022-09-13T10:34:03;9.63;;;2.67;;
34767;SDS011;21755;43.608;1.236;2022-09-13T10:36:35;13.40;;;2.65;;
34767;SDS011;21755;43.608;1.236;2022-09-13T10:39:03;9.35;;;2.45;;
34767;SDS011;21755;43.608;1.236;2022-09-13T10:41:35;6.45;;;2.60;;
34767;SDS011;21755;43.608;1.236;2022-09-13T10:44:04;12.13;;;2.95;;
34767;SDS011;21755;43.608;1.236;2022-09-13T10:46:46;8.00;;;2.45;;
34767;SDS011;21755;43.608;1.236;2022-09-13T10:49:35;9.32;;;2.55;;
34767;SDS011;21755;43.608;1.236;2022-09-13T10:52:22;13.20;;;2.78;;
34767;SDS011;21755;43.608;1.236;2022-09-13T10:54:49;14.52;;;3.20;;
34767;SDS011;21755;43.608;1.236;2022-09-13T10:59:58;11.55;;;3.00;;
34767;SDS011;21755;43.608;1.236;2022-09-13T11:02:45;11.23;;;2.53;;
34767;SDS011;21755;43.608;1.236;2022-09-13T11:05:29;8.80;;;2.67;;
34767;SDS011;21755;43.608;1.236;2022-09-13T11:30:44;8.52;;;2.60;;
34767;SDS011;21755;43.608;1.236;2022-09-13T11:33:27;7.80;;;1.80;;
34767;SDS011;21755;43.608;1.236;2022-09-13T11:47:32;9.20;;;2.10;;
34767;SDS011;21755;43.608;1.236;2022-09-13T11:50:15;12.80;;;2.78;;
34767;SDS011;21755;43.608;1.236;2022-09-13T11:55:25;9.57;;;2.35;;
34767;SDS011;21755;43.608;1.236;2022-09-13T11:58:04;13.70;;;2.40;;
34767;SDS011;21755;43.608;1.236;2022-09-13T12:05:38;11.75;;;2.70;;
34767;SDS011;21755;43.608;1.236;2022-09-13T12:16:21;6.57;;;2.33;;
34767;SDS011;21755;43.608;1.236;2022-09-13T12:18:53;12.93;;;2.65;;
34767;SDS011;21755;43.608;1.236;2022-09-13T12:21:31;6.55;;;2.65;;
34767;SDS011;21755;43.608;1.236;2022-09-13T12:32:03;7.15;;;2.53;;
34767;SDS011;21755;43.608;1.236;2022-09-13T12:34:41;10.43;;;2.80;;
34767;SDS011;21755;43.608;1.236;2022-09-13T12:37:37;15.32;;;2.75;;
34767;SDS011;21755;43.608;1.236;2022-09-13T12:40:39;10.00;;;2.10;;
34767;SDS011;21755;43.608;1.236;2022-09-13T12:43:30;6.55;;;1.98;;
34767;SDS011;21755;43.608;1.236;2022-09-13T12:54:38;7.55;;;2.42;;
34767;SDS011;21755;43.608;1.236;2022-09-13T13:03:03;7.70;;;2.47;;
34767;SDS011;21755;43.608;1.236;2022-09-13T13:05:49;10.13;;;2.75;;
34767;SDS011;21755;43.608;1.236;2022-09-13T13:10:44;8.77;;;2.53;;
34767;SDS011;21755;43.608;1.236;2022-09-13T13:13:35;11.32;;;2.70;;
34767;SDS011;21755;43.608;1.236;2022-09-13T13:16:05;5.72;;;1.92;;
34767;SDS011;21755;43.608;1.236;2022-09-13T13:19:03;6.22;;;1.92;;
34767;SDS011;21755;43.608;1.236;2022-09-13T13:21:49;13.32;;;2.22;;
34767;SDS011;21755;43.608;1.236;2022-09-13T13:29:17;9.15;;;2.58;;
34767;SDS011;21755;43.608;1.236;2022-09-13T13:32:03;7.43;;;1.77;;
34767;SDS011;21755;43.608;1.236;2022-09-13T13:39:39;10.15;;;2.10;;
34767;SDS011;21755;43.608;1.236;2022-09-13T13:42:23;7.17;;;2.00;;
34767;SDS011;21755;43.608;1.236;2022-09-13T14:00:56;10.85;;;2.13;;
34767;SDS011;21755;43.608;1.236;2022-09-13T14:19:59;9.63;;;1.77;;
34767;SDS011;21755;43.608;1.236;2022-09-13T14:22:34;4.50;;;1.80;;
34767;SDS011;21755;43.608;1.236;2022-09-13T14:27:44;4.68;;;1.85;;
34767;SDS011;21755;43.608;1.236;2022-09-13T14:30:22;6.88;;;1.70;;
34767;SDS011;21755;43.608;1.236;2022-09-13T14:32:55;3.67;;;1.60;;
34767;SDS011;21755;43.608;1.236;2022-09-13T14:37:54;7.22;;;1.92;;
34767;SDS011;21755;43.608;1.236;2022-09-13T14:40:33;5.80;;;1.70;;
34767;SDS011;21755;43.608;1.236;2022-09-13T14:42:59;9.70;;;2.00;;
34767;SDS011;21755;43.608;1.236;2022-09-13T14:45:26;8.30;;;1.65;;
34767;SDS011;21755;43.608;1.236;2022-09-13T14:48:21;12.68;;;2.17;;
34767;SDS011;21755;43.608;1.236;2022-09-13T14:51:15;5.35;;;1.50;;
34767;SDS011;21755;43.608;1.236;2022-09-13T14:53:45;5.22;;;1.67;;
34767;SDS011;21755;43.608;1.236;2022-09-13T14:56:17;7.28;;;1.65;;
34767;SDS011;21755;43.608;1.236;2022-09-13T14:58:55;8.43;;;1.90;;
34767;SDS011;21755;43.608;1.236;2022-09-13T15:01:28;4.60;;;1.85;;
34767;SDS011;21755;43.608;1.236;2022-09-13T15:03:59;8.13;;;1.95;;
34767;SDS011;21755;43.608;1.236;2022-09-13T15:06:28;9.13;;;1.60;;
34767;SDS011;21755;43.608;1.236;2022-09-13T15:08:58;3.83;;;1.75;;
34767;SDS011;21755;43.608;1.236;2022-09-13T15:11:39;4.18;;;1.45;;
34767;SDS011;21755;43.608;1.236;2022-09-13T15:14:28;6.05;;;2.22;;
34767;SDS011;21755;43.608;1.236;2022-09-13T15:17:06;7.03;;;2.10;;
34767;SDS011;21755;43.608;1.236;2022-09-13T15:19:37;11.80;;;1.90;;
34767;SDS011;21755;43.608;1.236;2022-09-13T15:22:20;6.77;;;1.83;;
34767;SDS011;21755;43.608;1.236;2022-09-13T15:24:49;5.47;;;1.58;;
34767;SDS011;21755;43.608;1.236;2022-09-13T15:27:19;5.57;;;1.45;;
34767;SDS011;21755;43.608;1.236;2022-09-13T15:29:49;4.82;;;1.77;;
34767;SDS011;21755;43.608;1.236;2022-09-13T15:33:02;6.13;;;1.77;;
34767;SDS011;21755;43.608;1.236;2022-09-13T15:35:42;8.50;;;1.67;;
34767;SDS011;21755;43.608;1.236;2022-09-13T15:40:56;9.43;;;1.73;;
34767;SDS011;21755;43.608;1.236;2022-09-13T15:43:24;6.38;;;1.58;;
34767;SDS011;21755;43.608;1.236;2022-09-13T15:45:50;8.55;;;2.13;;
34767;SDS011;21755;43.608;1.236;2022-09-13T15:48:24;6.90;;;1.88;;
34767;SDS011;21755;43.608;1.236;2022-09-13T15:51:14;12.50;;;2.65;;
34767;SDS011;21755;43.608;1.236;2022-09-13T15:53:40;6.28;;;2.10;;
34767;SDS011;21755;43.608;1.236;2022-09-13T15:56:07;9.52;;;2.08;;
34767;SDS011;21755;43.608;1.236;2022-09-13T15:58:37;8.07;;;2.05;;
34767;SDS011;21755;43.608;1.236;2022-09-13T16:01:03;7.75;;;2.60;;
34767;SDS011;21755;43.608;1.236;2022-09-13T16:03:30;11.25;;;2.15;;
34767;SDS011;21755;43.608;1.236;2022-09-13T16:05:56;8.27;;;2.20;;
34767;SDS011;21755;43.608;1.236;2022-09-13T16:08:23;10.18;;;2.15;;
34767;SDS011;21755;43.608;1.236;2022-09-13T16:10:49;12.98;;;2.47;;
34767;SDS011;21755;43.608;1.236;2022-09-13T16:13:15;7.15;;;2.10;;
34767;SDS011;21755;43.608;1.236;2022-09-13T16:15:42;9.07;;;2.00;;
34767;SDS011;21755;43.608;1.236;2022-09-13T16:18:08;6.38;;;2.30;;
34767;SDS011;21755;43.608;1.236;2022-09-13T16:20:34;7.20;;;2.10;;
34767;SDS011;21755;43.608;1.236;2022-09-13T16:23:01;8.10;;;2.08;;
34767;SDS011;21755;43.608;1.236;2022-09-13T16:25:26;7.90;;;2.25;;
34767;SDS011;21755;43.608;1.236;2022-09-13T16:27:52;7.45;;;2.55;;
34767;SDS011;21755;43.608;1.236;2022-09-13T16:30:19;7.75;;;2.20;;
34767;SDS011;21755;43.608;1.236;2022-09-13T16:32:46;9.70;;;2.63;;
34767;SDS011;21755;43.608;1.236;2022-09-13T16:35:13;8.45;;;2.20;;
34767;SDS011;21755;43.608;1.236;2022-09-13T16:37:41;4.13;;;2.10;;
34767;SDS011;21755;43.608;1.236;2022-09-13T16:40:08;8.82;;;2.00;;
34767;SDS011;21755;43.608;1.236;2022-09-13T16:42:35;4.78;;;2.25;;
34767;SDS011;21755;43.608;1.236;2022-09-13T16:45:01;10.63;;;2.45;;
34767;SDS011;21755;43.608;1.236;2022-09-13T16:47:27;9.00;;;2.50;;
34767;SDS011;21755;43.608;1.236;2022-09-13T16:49:54;5.70;;;2.33;;
34767;SDS011;21755;43.608;1.236;2022-09-13T16:52:19;8.02;;;2.50;;
34767;SDS011;21755;43.608;1.236;2022-09-13T16:54:45;8.10;;;1.92;;
34767;SDS011;21755;43.608;1.236;2022-09-13T16:57:13;9.05;;;2.35;;
34767;SDS011;21755;43.608;1.236;2022-09-13T16:59:39;10.10;;;2.83;;
34767;SDS011;21755;43.608;1.236;2022-09-13T17:02:06;8.55;;;2.30;;
34767;SDS011;21755;43.608;1.236;2022-09-13T17:04:35;11.30;;;2.60;;
34767;SDS011;21755;43.608;1.236;2022-09-13T17:07:01;8.25;;;2.53;;
34767;SDS011;21755;43.608;1.236;2022-09-13T17:09:30;10.68;;;2.63;;
34767;SDS011;21755;43.608;1.236;2022-09-13T17:11:56;11.23;;;3.03;;
34767;SDS011;21755;43.608;1.236;2022-09-13T17:14:23;9.43;;;2.70;;
34767;SDS011;21755;43.608;1.236;2022-09-13T17:16:50;14.63;;;3.22;;
34767;SDS011;21755;43.608;1.236;2022-09-13T17:19:19;10.40;;;2.90;;
34767;SDS011;21755;43.608;1.236;2022-09-13T17:21:48;6.30;;;2.55;;
34767;SDS011;21755;43.608;1.236;2022-09-13T17:24:15;8.38;;;2.58;;
34767;SDS011;21755;43.608;1.236;2022-09-13T17:26:41;5.63;;;2.35;;
34767;SDS011;21755;43.608;1.236;2022-09-13T17:29:09;12.23;;;2.90;;
34767;SDS011;21755;43.608;1.236;2022-09-13T17:31:36;12.43;;;2.75;;
34767;SDS011;21755;43.608;1.236;2022-09-13T17:34:02;7.15;;;2.60;;
34767;SDS011;21755;43.608;1.236;2022-09-13T17:36:29;9.50;;;2.78;;
34767;SDS011;21755;43.608;1.236;2022-09-13T17:38:55;6.70;;;2.63;;
34767;SDS011;21755;43.608;1.236;2022-09-13T17:41:22;8.98;;;2.78;;
34767;SDS011;21755;43.608;1.236;2022-09-13T17:43:49;9.00;;;2.47;;
34767;SDS011;21755;43.608;1.236;2022-09-13T17:46:19;10.48;;;2.58;;
34767;SDS011;21755;43.608;1.236;2022-09-13T17:48:48;8.88;;;2.50;;
34767;SDS011;21755;43.608;1.236;2022-09-13T17:51:16;8.80;;;2.20;;
34767;SDS011;21755;43.608;1.236;2022-09-13T17:53:45;6.20;;;2.55;;
34767;SDS011;21755;43.608;1.236;2022-09-13T17:56:22;11.23;;;3.00;;
34767;SDS011;21755;43.608;1.236;2022-09-13T17:59:04;13.20;;;2.60;;
34767;SDS011;21755;43.608;1.236;2022-09-13T18:01:32;8.43;;;2.78;;
34767;SDS011;21755;43.608;1.236;2022-09-13T18:03:58;11.52;;;3.20;;
34767;SDS011;21755;43.608;1.236;2022-09-13T18:06:24;10.38;;;2.85;;
34767;SDS011;21755;43.608;1.236;2022-09-13T18:08:51;9.48;;;2.80;;
34767;SDS011;21755;43.608;1.236;2022-09-13T18:11:18;15.05;;;2.88;;
34767;SDS011;21755;43.608;1.236;2022-09-13T18:13:45;9.90;;;3.65;;
34767;SDS011;21755;43.608;1.236;2022-09-13T18:16:19;9.75;;;3.10;;
34767;SDS011;21755;43.608;1.236;2022-09-13T18:18:47;12.50;;;3.22;;
34767;SDS011;21755;43.608;1.236;2022-09-13T18:21:14;10.30;;;3.15;;
34767;SDS011;21755;43.608;1.236;2022-09-13T18:23:44;12.20;;;3.35;;
34767;SDS011;21755;43.608;1.236;2022-09-13T18:26:12;10.07;;;3.47;;
34767;SDS011;21755;43.608;1.236;2022-09-13T18:28:39;7.97;;;3.35;;
34767;SDS011;21755;43.608;1.236;2022-09-13T18:31:07;15.55;;;3.50;;
34767;SDS011;21755;43.608;1.236;2022-09-13T18:33:43;11.88;;;3.83;;
34767;SDS011;21755;43.608;1.236;2022-09-13T18:36:16;10.57;;;3.03;;
34767;SDS011;21755;43.608;1.236;2022-09-13T18:41:14;11.40;;;3.72;;
34767;SDS011;21755;43.608;1.236;2022-09-13T18:43:48;8.57;;;3.63;;
34767;SDS011;21755;43.608;1.236;2022-09-13T18:46:17;16.92;;;3.58;;
34767;SDS011;21755;43.608;1.236;2022-09-13T18:48:48;10.70;;;3.53;;
34767;SDS011;21755;43.608;1.236;2022-09-13T18:51:19;10.25;;;3.15;;